createdAt,value
2023-04-11T00:00:27.405Z,20.02
2023-04-11T00:03:13.248Z,18.60
2023-04-11T00:05:59.015Z,19.33
2023-04-11T00:08:44.676Z,19.10
2023-04-11T00:11:31.505Z,21.50
2023-04-11T00:14:18.293Z,26.42
2023-04-11T00:17:05.398Z,21.40
2023-04-11T00:20:10.375Z,19.20
2023-04-11T00:22:57.742Z,17.95
2023-04-11T00:25:43.283Z,18.95
2023-04-11T00:28:28.696Z,18.00
2023-04-11T00:31:14.463Z,17.15
2023-04-11T00:33:59.776Z,16.70
2023-04-11T00:36:45.864Z,16.75
2023-04-11T00:39:33.508Z,21.13
2023-04-11T00:42:19.961Z,17.88
2023-04-11T00:45:06.331Z,19.88
2023-04-11T00:47:52.649Z,19.55
2023-04-11T00:50:41.574Z,16.30
2023-04-11T00:53:31.930Z,21.60
2023-04-11T00:56:18.163Z,22.30
2023-04-11T00:59:03.974Z,23.08
2023-04-11T01:01:49.683Z,25.35
2023-04-11T01:04:35.441Z,23.67
2023-04-11T01:07:23.703Z,22.83
2023-04-11T01:10:10.580Z,22.33
2023-04-11T01:13:00.569Z,23.25
2023-04-11T01:15:46.374Z,21.88
2023-04-11T01:18:32.911Z,24.45
2023-04-11T01:21:19.932Z,23.83
2023-04-11T01:24:05.919Z,24.30
2023-04-11T01:26:51.710Z,23.98
2023-04-11T01:29:38.343Z,21.50
2023-04-11T01:32:24.085Z,20.15
2023-04-11T01:35:12.456Z,21.65
2023-04-11T01:37:58.441Z,25.98
2023-04-11T01:40:45.386Z,18.40
2023-04-11T01:43:31.235Z,24.60
2023-04-11T01:46:17.152Z,23.38
2023-04-11T01:49:03.410Z,21.73
2023-04-11T01:51:48.977Z,23.17
2023-04-11T01:54:34.479Z,20.92
2023-04-11T01:57:20.388Z,19.80
2023-04-11T02:00:10.309Z,24.35
2023-04-11T02:03:03.061Z,22.48
2023-04-11T02:05:48.912Z,25.52
2023-04-11T02:08:34.488Z,18.58
2023-04-11T02:11:19.975Z,18.40
2023-04-11T02:14:09.220Z,21.83
2023-04-11T02:16:56.164Z,23.50
2023-04-11T02:19:44.586Z,22.27
2023-04-11T02:22:30.218Z,22.95
2023-04-11T02:25:15.893Z,25.27
2023-04-11T02:28:01.579Z,24.73
2023-04-11T02:30:48.322Z,22.73
2023-04-11T02:33:34.031Z,24.20
2023-04-11T02:36:19.550Z,24.10
2023-04-11T02:39:05.008Z,21.15
2023-04-11T02:41:51.079Z,23.75
2023-04-11T02:44:36.868Z,19.50
2023-04-11T02:47:23.030Z,21.77
2023-04-11T02:50:09.358Z,24.13
2023-04-11T02:52:59.977Z,22.67
2023-04-11T02:55:47.701Z,24.38
2023-04-11T02:58:33.935Z,30.27
2023-04-11T03:01:24.763Z,21.58
2023-04-11T03:04:12.291Z,21.48
2023-04-11T03:07:18.271Z,21.20
2023-04-11T03:10:04.919Z,21.65
2023-04-11T03:12:51.855Z,25.52
2023-04-11T03:15:37.502Z,24.63
2023-04-11T03:18:26.475Z,22.40
2023-04-11T03:21:13.063Z,21.80
2023-04-11T03:24:03.195Z,22.27
2023-04-11T03:26:48.735Z,23.80
2023-04-11T03:29:36.164Z,22.70
2023-04-11T03:32:29.991Z,20.98
2023-04-11T03:35:18.053Z,23.92
2023-04-11T03:38:05.827Z,22.38
2023-04-11T03:40:51.276Z,25.38
2023-04-11T03:43:40.052Z,26.00
2023-04-11T03:46:27.232Z,23.02
2023-04-11T03:49:12.879Z,27.48
2023-04-11T03:51:58.987Z,26.88
2023-04-11T03:54:47.766Z,28.17
2023-04-11T03:57:35.651Z,23.90
2023-04-11T04:00:21.173Z,25.23
2023-04-11T04:03:18.289Z,26.17
2023-04-11T04:06:04.772Z,28.67
2023-04-11T04:08:51.406Z,24.95
2023-04-11T04:11:39.120Z,27.75
2023-04-11T04:14:24.699Z,24.63
2023-04-11T04:17:12.892Z,28.75
2023-04-11T04:19:58.541Z,26.92
2023-04-11T04:22:46.679Z,24.67
2023-04-11T04:28:21.883Z,26.88
2023-04-11T04:31:08.429Z,22.05
2023-04-11T04:34:08.022Z,25.17
2023-04-11T04:36:58.914Z,27.95
2023-04-11T04:40:01.378Z,26.02
2023-04-11T04:43:08.543Z,30.52
2023-04-11T04:46:00.564Z,27.88
2023-04-11T04:48:53.088Z,24.85
2023-04-11T04:51:39.970Z,28.83
2023-04-11T04:54:25.749Z,28.42
2023-04-11T04:57:11.892Z,31.30
2023-04-11T04:59:57.979Z,24.88
2023-04-11T05:02:43.714Z,27.20
2023-04-11T05:05:32.034Z,24.20
2023-04-11T05:08:20.355Z,29.17
2023-04-11T05:11:06.673Z,27.25
2023-04-11T05:13:53.233Z,25.95
2023-04-11T05:16:43.410Z,40.55
2023-04-11T05:19:28.882Z,35.47
2023-04-11T05:22:14.504Z,35.47
2023-04-11T05:25:08.375Z,49.17
2023-04-11T05:27:56.272Z,52.83
2023-04-11T05:30:44.042Z,31.95
2023-04-11T05:33:30.856Z,35.55
2023-04-11T05:36:17.336Z,31.52
2023-04-11T05:39:04.088Z,30.45
2023-04-11T05:41:50.144Z,28.13
2023-04-11T05:44:35.759Z,25.77
2023-04-11T05:47:21.220Z,31.83
2023-04-11T05:50:08.177Z,38.30
2023-04-11T05:52:54.178Z,24.30
2023-04-11T05:55:39.805Z,27.88
2023-04-11T05:58:25.740Z,26.58
2023-04-11T06:01:17.746Z,26.17
2023-04-11T06:04:04.250Z,25.40
2023-04-11T06:06:51.374Z,26.77
2023-04-11T06:09:37.001Z,24.75
2023-04-11T06:12:22.482Z,27.42
2023-04-11T06:15:11.236Z,28.45
2023-04-11T06:17:56.764Z,29.27
2023-04-11T06:20:42.282Z,30.65
2023-04-11T06:23:27.811Z,28.75
2023-04-11T06:26:13.389Z,18.23
2023-04-11T06:28:58.805Z,20.42
2023-04-11T06:31:44.387Z,21.40
2023-04-11T06:34:30.229Z,21.10
2023-04-11T06:37:15.885Z,19.88
2023-04-11T06:40:01.588Z,19.23
2023-04-11T06:42:47.862Z,17.58
2023-04-11T06:45:34.192Z,17.35
2023-04-11T06:48:20.501Z,26.10
2023-04-11T06:51:08.531Z,23.75
2023-04-11T06:53:54.894Z,22.70
2023-04-11T06:56:40.806Z,23.90
2023-04-11T06:59:27.473Z,26.00
2023-04-11T07:02:13.941Z,34.45
2023-04-11T07:04:59.982Z,19.45
2023-04-11T07:07:45.414Z,16.67
2023-04-11T07:10:31.036Z,18.17
2023-04-11T07:13:16.592Z,19.80
2023-04-11T07:16:02.420Z,17.65
2023-04-11T07:18:48.418Z,17.48
2023-04-11T07:21:34.209Z,16.33
2023-04-11T07:24:20.423Z,20.80
2023-04-11T07:27:09.380Z,25.92
2023-04-11T07:29:55.761Z,19.23
2023-04-11T07:32:41.552Z,21.73
2023-04-11T07:35:28.044Z,19.88
2023-04-11T07:38:21.225Z,24.92
2023-04-11T07:41:09.462Z,22.48
2023-04-11T07:43:55.192Z,16.77
2023-04-11T07:46:41.075Z,20.05
2023-04-11T07:49:26.743Z,18.60
2023-04-11T07:52:14.302Z,18.77
2023-04-11T07:55:00.720Z,20.33
2023-04-11T07:57:46.747Z,20.77
2023-04-11T08:00:33.147Z,15.88
2023-04-11T08:03:18.999Z,16.02
2023-04-11T08:06:04.947Z,13.10
2023-04-11T08:08:51.019Z,17.13
2023-04-11T08:11:36.556Z,15.60
2023-04-11T08:14:25.484Z,16.40
2023-04-11T08:17:25.163Z,17.65
2023-04-11T08:20:13.765Z,17.20
2023-04-11T08:23:00.003Z,18.50
2023-04-11T08:25:46.118Z,15.95
2023-04-11T08:28:31.513Z,18.95
2023-04-11T08:31:17.740Z,15.95
2023-04-11T08:34:06.191Z,17.00
2023-04-11T08:36:52.553Z,17.35
2023-04-11T08:39:38.572Z,16.23
2023-04-11T08:42:30.100Z,16.63
2023-04-11T08:45:15.632Z,17.05
2023-04-11T08:48:01.075Z,17.73
2023-04-11T08:50:47.047Z,18.48
2023-04-11T08:53:36.365Z,23.70
2023-04-11T08:56:22.222Z,20.85
2023-04-11T08:59:07.956Z,20.90
2023-04-11T09:02:10.243Z,20.48
2023-04-11T09:04:56.997Z,22.10
2023-04-11T09:07:51.794Z,19.77
2023-04-11T09:10:40.673Z,22.75
2023-04-11T09:13:27.473Z,26.33
2023-04-11T09:16:14.258Z,35.83
2023-04-11T09:18:59.855Z,20.98
2023-04-11T09:21:49.914Z,20.83
2023-04-11T09:24:36.885Z,19.77
2023-04-11T09:27:24.138Z,17.05
2023-04-11T09:30:25.671Z,19.58
2023-04-11T09:33:23.564Z,19.60
2023-04-11T09:36:38.871Z,19.15
2023-04-11T09:39:27.856Z,19.08
2023-04-11T09:42:25.949Z,18.53
2023-04-11T09:45:23.546Z,17.73
2023-04-11T09:48:10.026Z,16.73
2023-04-11T09:50:58.844Z,17.10
2023-04-11T09:53:45.459Z,20.02
2023-04-11T09:56:33.328Z,19.38
2023-04-11T09:59:20.732Z,14.57
2023-04-11T10:02:06.324Z,14.88
2023-04-11T10:04:54.088Z,15.20
2023-04-11T10:08:07.312Z,13.48
2023-04-11T10:10:53.802Z,10.25
2023-04-11T10:13:39.563Z,9.85
2023-04-11T10:16:26.082Z,8.95
2023-04-11T10:19:18.092Z,8.93
2023-04-11T10:22:03.697Z,11.05
2023-04-11T10:25:21.430Z,25.33
2023-04-11T10:28:07.111Z,19.33
2023-04-11T10:31:03.798Z,13.95
2023-04-11T10:34:18.969Z,14.48
2023-04-11T10:37:09.821Z,18.45
2023-04-11T10:39:57.755Z,11.23
2023-04-11T10:42:47.755Z,13.63
2023-04-11T10:45:39.013Z,13.73
2023-04-11T10:48:24.448Z,13.95
2023-04-11T10:51:25.553Z,10.20
2023-04-11T10:54:25.272Z,11.82
2023-04-11T10:57:10.738Z,13.63
2023-04-11T10:59:56.952Z,18.05
2023-04-11T11:02:43.052Z,16.55
2023-04-11T11:05:29.037Z,10.57
2023-04-11T11:08:16.439Z,9.88
2023-04-11T11:11:08.748Z,9.55
2023-04-11T11:13:59.706Z,11.85
2023-04-11T11:16:46.492Z,10.93
2023-04-11T11:19:32.879Z,10.25
2023-04-11T11:22:25.991Z,8.30
2023-04-11T11:25:12.456Z,12.32
2023-04-11T11:28:06.815Z,13.00
2023-04-11T11:30:55.805Z,10.00
2023-04-11T11:33:41.763Z,9.70
2023-04-11T11:36:28.137Z,11.63
2023-04-11T11:39:14.863Z,14.57
2023-04-11T11:42:01.142Z,12.95
2023-04-11T11:44:47.000Z,10.68
2023-04-11T11:47:49.068Z,23.80
2023-04-11T11:50:34.782Z,8.57
2023-04-11T11:53:21.596Z,12.82
2023-04-11T11:56:14.260Z,7.03
2023-04-11T11:59:00.624Z,6.43
2023-04-11T12:01:46.560Z,4.93
2023-04-11T12:04:32.662Z,4.55
2023-04-11T12:07:22.239Z,6.15
2023-04-11T12:10:13.267Z,13.80
2023-04-11T12:12:58.908Z,10.23
2023-04-11T12:15:49.379Z,12.55
2023-04-11T12:18:35.148Z,10.50
2023-04-11T12:21:20.635Z,7.38
2023-04-11T12:24:06.996Z,7.57
2023-04-11T12:27:06.239Z,8.73
2023-04-11T12:29:52.527Z,7.43
2023-04-11T12:32:38.203Z,6.88
2023-04-11T12:35:24.413Z,7.72
2023-04-11T12:38:10.948Z,7.63
2023-04-11T12:41:19.844Z,6.43
2023-04-11T12:44:05.332Z,7.70
2023-04-11T12:46:50.923Z,7.50
2023-04-11T12:49:37.043Z,5.85
2023-04-11T12:52:24.670Z,6.85
2023-04-11T12:55:10.491Z,6.55
2023-04-11T12:57:56.368Z,6.10
2023-04-11T13:00:42.200Z,5.68
2023-04-11T13:03:28.632Z,6.10
2023-04-11T13:06:14.204Z,6.30
2023-04-11T13:09:01.146Z,6.72
2023-04-11T13:11:46.807Z,5.32
2023-04-11T13:14:32.559Z,5.50
2023-04-11T13:17:18.237Z,5.05
2023-04-11T13:20:09.506Z,7.07
2023-04-11T13:22:55.076Z,6.55
2023-04-11T13:25:40.592Z,6.13
2023-04-11T13:28:26.867Z,5.72
2023-04-11T13:31:13.506Z,6.72
2023-04-11T13:33:59.973Z,9.30
2023-04-11T13:36:45.659Z,7.32
2023-04-11T13:39:31.197Z,7.95
2023-04-11T13:42:16.613Z,5.63
2023-04-11T13:45:02.322Z,7.60
2023-04-11T13:47:48.094Z,7.68
2023-04-11T13:50:34.294Z,7.88
2023-04-11T13:53:20.150Z,5.55
2023-04-11T13:56:07.397Z,8.05
2023-04-11T13:58:53.412Z,9.18
2023-04-11T14:01:39.822Z,7.10
2023-04-11T14:04:25.911Z,5.90
2023-04-11T14:07:12.027Z,7.05
2023-04-11T14:09:57.951Z,5.88
2023-04-11T14:12:43.323Z,5.45
2023-04-11T14:15:31.029Z,6.38
2023-04-11T14:18:16.671Z,6.25
2023-04-11T14:21:06.626Z,6.85
2023-04-11T14:23:52.740Z,6.32
2023-04-11T14:26:38.358Z,5.72
2023-04-11T14:29:24.596Z,6.43
2023-04-11T14:32:10.784Z,7.18
2023-04-11T14:34:56.588Z,6.40
2023-04-11T14:37:42.127Z,6.75
2023-04-11T14:40:27.968Z,9.05
2023-04-11T14:43:13.588Z,10.00
2023-04-11T14:45:59.681Z,8.95
2023-04-11T14:48:45.600Z,9.02
2023-04-11T14:51:31.906Z,8.27
2023-04-11T14:54:17.456Z,7.22
2023-04-11T14:57:03.370Z,8.27
2023-04-11T14:59:49.546Z,7.35
2023-04-11T15:02:35.600Z,7.75
2023-04-11T15:05:23.679Z,6.93
2023-04-11T15:08:09.759Z,6.30
2023-04-11T15:10:55.606Z,7.63
2023-04-11T15:13:40.930Z,7.55
2023-04-11T15:16:26.706Z,8.45
2023-04-11T15:19:12.654Z,8.35
2023-04-11T15:21:58.361Z,8.68
2023-04-11T15:24:44.042Z,8.93
2023-04-11T15:27:29.801Z,8.40
2023-04-11T15:30:15.379Z,8.23
2023-04-11T15:33:01.050Z,8.95
2023-04-11T15:35:46.990Z,9.07
2023-04-11T15:38:34.888Z,8.65
2023-04-11T15:41:20.635Z,8.00
2023-04-11T15:44:06.355Z,8.10
2023-04-11T15:46:51.956Z,7.15
2023-04-11T15:49:38.923Z,7.97
2023-04-11T15:52:24.399Z,7.95
2023-04-11T15:55:10.090Z,6.45
2023-04-11T15:57:56.006Z,8.02
2023-04-11T16:00:43.100Z,9.05
2023-04-11T16:03:32.256Z,11.32
2023-04-11T16:06:18.046Z,9.50
2023-04-11T16:09:03.885Z,7.85
2023-04-11T16:11:49.860Z,8.15
2023-04-11T16:14:35.741Z,7.35
2023-04-11T16:17:21.667Z,8.40
2023-04-11T16:20:10.469Z,7.38
2023-04-11T16:22:57.367Z,8.98
2023-04-11T16:25:44.292Z,9.68
2023-04-11T16:28:30.682Z,8.40
2023-04-11T16:31:21.362Z,8.13
2023-04-11T16:34:07.108Z,11.70
2023-04-11T16:36:53.456Z,16.60
2023-04-11T16:39:38.949Z,28.05
2023-04-11T16:42:24.775Z,23.90
2023-04-11T16:45:10.658Z,21.15
2023-04-11T16:47:56.064Z,21.20
2023-04-11T16:50:41.578Z,21.85
2023-04-11T16:53:27.068Z,21.40
2023-04-11T16:56:13.194Z,20.35
2023-04-11T16:58:59.163Z,16.45
2023-04-11T17:01:45.107Z,13.68
2023-04-11T17:04:30.800Z,17.77
2023-04-11T17:07:17.159Z,12.98
2023-04-11T17:10:04.613Z,16.13
2023-04-11T17:12:50.888Z,17.27
2023-04-11T17:15:37.077Z,19.90
2023-04-11T17:18:22.762Z,30.27
2023-04-11T17:21:08.627Z,22.05
2023-04-11T17:23:54.395Z,21.63
2023-04-11T17:26:39.727Z,22.30
2023-04-11T17:29:25.260Z,24.52
2023-04-11T17:32:11.398Z,21.25
2023-04-11T17:34:57.174Z,18.30
2023-04-11T17:37:43.050Z,19.48
2023-04-11T17:40:28.518Z,24.63
2023-04-11T17:43:14.028Z,20.92
2023-04-11T17:45:59.898Z,25.95
2023-04-11T17:48:45.814Z,26.10
2023-04-11T17:51:31.129Z,18.75
2023-04-11T17:54:16.608Z,27.65
2023-04-11T17:57:02.615Z,28.80
2023-04-11T17:59:50.751Z,21.75
2023-04-11T18:02:39.090Z,23.80
2023-04-11T18:05:34.133Z,20.48
2023-04-11T18:08:19.955Z,22.70
2023-04-11T18:11:05.804Z,25.17
2023-04-11T18:13:51.448Z,25.13
2023-04-11T18:16:38.436Z,24.50
2023-04-11T18:19:24.100Z,26.00
2023-04-11T18:22:10.058Z,24.08
2023-04-11T18:24:55.677Z,20.70
2023-04-11T18:27:41.784Z,18.13
2023-04-11T18:30:27.840Z,19.48
2023-04-11T18:33:13.448Z,25.25
2023-04-11T18:35:59.253Z,20.25
2023-04-11T18:38:46.103Z,23.15
2023-04-11T18:41:31.632Z,21.52
2023-04-11T18:44:17.138Z,23.10
2023-04-11T18:47:05.319Z,25.80
2023-04-11T18:49:51.807Z,20.92
2023-04-11T18:52:37.383Z,27.83
2023-04-11T18:55:23.542Z,28.83
2023-04-11T18:58:10.098Z,23.75
2023-04-11T19:00:57.402Z,24.60
2023-04-11T19:03:43.784Z,25.52
2023-04-11T19:06:29.680Z,25.27
2023-04-11T19:09:15.204Z,21.67
2023-04-11T19:12:00.862Z,20.08
2023-04-11T19:14:46.638Z,19.65
2023-04-11T19:17:33.100Z,18.10
2023-04-11T19:20:19.862Z,18.08
2023-04-11T19:23:05.489Z,21.23
2023-04-11T19:25:51.126Z,21.23
2023-04-11T19:28:36.617Z,22.45
2023-04-11T19:31:26.441Z,21.98
2023-04-11T19:34:14.217Z,21.08
2023-04-11T19:37:00.246Z,21.55
2023-04-11T19:39:45.902Z,19.92
2023-04-11T19:42:32.435Z,21.65
2023-04-11T19:45:18.436Z,18.88
2023-04-11T19:48:04.481Z,19.20
2023-04-11T19:50:51.625Z,19.25
2023-04-11T19:53:38.080Z,20.25
2023-04-11T19:56:27.946Z,21.80
2023-04-11T19:59:14.568Z,20.48
2023-04-11T20:02:00.956Z,21.80
2023-04-11T20:04:47.525Z,18.25
2023-04-11T20:07:33.612Z,18.33
2023-04-11T20:10:19.050Z,19.02
2023-04-11T20:13:04.836Z,17.48
2023-04-11T20:15:50.766Z,15.55
2023-04-11T20:18:36.770Z,18.42
2023-04-11T20:21:22.257Z,16.17
2023-04-11T20:24:08.996Z,16.85
2023-04-11T20:26:56.364Z,17.48
2023-04-11T20:29:42.542Z,20.73
2023-04-11T20:32:28.022Z,20.55
2023-04-11T20:35:13.688Z,21.08
2023-04-11T20:37:59.713Z,29.10
2023-04-11T20:40:45.293Z,23.40
2023-04-11T20:43:31.202Z,25.52
2023-04-11T20:46:17.218Z,29.35
2023-04-11T20:49:03.281Z,30.60
2023-04-11T20:51:49.230Z,24.52
2023-04-11T20:54:35.156Z,24.13
2023-04-11T20:57:21.431Z,21.38
2023-04-11T21:00:12.890Z,24.08
2023-04-11T21:02:58.809Z,24.88
2023-04-11T21:05:45.939Z,24.90
2023-04-11T21:08:31.836Z,24.67
2023-04-11T21:11:17.567Z,25.25
2023-04-11T21:14:03.174Z,23.50
2023-04-11T21:16:49.437Z,21.38
2023-04-11T21:19:38.256Z,22.45
2023-04-11T21:22:23.739Z,20.50
2023-04-11T21:25:09.856Z,22.23
2023-04-11T21:27:55.453Z,22.88
2023-04-11T21:30:41.729Z,19.77
2023-04-11T21:33:27.517Z,31.83
2023-04-11T21:36:13.003Z,33.10
2023-04-11T21:38:58.661Z,28.15
2023-04-11T21:41:44.163Z,25.08
2023-04-11T21:44:29.707Z,26.60
2023-04-11T21:47:16.487Z,24.38
2023-04-11T21:50:02.423Z,24.45
2023-04-11T21:52:48.343Z,21.08
2023-04-11T21:55:34.024Z,20.35
2023-04-11T21:58:29.071Z,20.77
2023-04-11T22:01:15.501Z,17.90
2023-04-11T22:04:02.569Z,15.60
2023-04-11T22:06:49.164Z,17.25
2023-04-11T22:09:37.547Z,21.02
2023-04-11T22:12:24.475Z,16.70
2023-04-11T22:15:12.102Z,17.63
2023-04-11T22:18:01.571Z,19.55
2023-04-11T22:20:47.362Z,16.38
2023-04-11T22:23:33.714Z,16.48
2023-04-11T22:26:34.377Z,21.15
2023-04-11T22:29:21.124Z,17.17
2023-04-11T22:32:07.473Z,14.52
2023-04-11T22:34:53.084Z,14.57
2023-04-11T22:37:38.659Z,15.68
2023-04-11T22:40:24.275Z,15.32
2023-04-11T22:43:09.924Z,18.08
2023-04-11T22:45:58.669Z,13.38
2023-04-11T22:48:46.306Z,15.18
2023-04-11T22:51:32.094Z,14.90
2023-04-11T22:54:17.842Z,14.50
2023-04-11T22:57:03.483Z,15.70
2023-04-11T22:59:48.900Z,13.65
2023-04-11T23:02:36.896Z,14.73
2023-04-11T23:05:22.789Z,14.07
2023-04-11T23:08:09.304Z,13.25
2023-04-11T23:10:54.862Z,15.07
2023-04-11T23:13:40.614Z,14.80
2023-04-11T23:16:26.938Z,15.15
2023-04-11T23:19:12.924Z,13.73
2023-04-11T23:21:58.913Z,14.32
2023-04-11T23:24:45.006Z,14.68
2023-04-11T23:27:32.074Z,14.68
2023-04-11T23:30:17.829Z,16.50
2023-04-11T23:33:05.466Z,16.00
2023-04-11T23:35:51.674Z,14.68
2023-04-11T23:38:37.127Z,16.08
2023-04-11T23:41:23.375Z,14.52
2023-04-11T23:44:09.104Z,16.63
2023-04-11T23:46:54.630Z,15.85
2023-04-11T23:49:40.484Z,15.82
2023-04-11T23:52:26.185Z,16.08
2023-04-11T23:55:13.210Z,16.15
2023-04-11T23:57:58.776Z,17.15
